createdAt,value
2019-03-18T00:01:59.885Z,39.92
2019-03-18T00:04:31.508Z,31.90
2019-03-18T00:07:03.057Z,29.87
2019-03-18T00:09:34.607Z,33.60
2019-03-18T00:12:06.347Z,34.63
2019-03-18T00:14:37.909Z,35.65
2019-03-18T00:17:09.399Z,34.88
2019-03-18T00:19:42.919Z,33.33
2019-03-18T00:22:14.386Z,38.73
2019-03-18T00:24:46.057Z,29.90
2019-03-18T00:27:17.362Z,34.25
2019-03-18T00:29:48.974Z,31.27
2019-03-18T00:32:20.658Z,35.48
2019-03-18T00:34:52.464Z,33.40
2019-03-18T00:37:24.153Z,29.82
2019-03-18T00:39:55.660Z,33.98
2019-03-18T00:42:28.212Z,28.42
2019-03-18T00:44:59.689Z,31.02
2019-03-18T00:47:31.052Z,31.70
2019-03-18T00:50:02.760Z,28.38
2019-03-18T00:52:34.322Z,27.75
2019-03-18T00:55:06.150Z,27.37
2019-03-18T00:57:37.700Z,30.45
2019-03-18T01:00:09.322Z,31.23
2019-03-18T01:02:40.963Z,26.27
2019-03-18T01:05:12.974Z,25.48
2019-03-18T01:07:45.790Z,25.82
2019-03-18T01:10:17.397Z,30.77
2019-03-18T01:12:48.868Z,26.93
2019-03-18T01:15:27.989Z,29.25
2019-03-18T01:17:53.364Z,30.40
2019-03-18T01:20:24.962Z,25.45
2019-03-18T01:22:56.554Z,29.10
2019-03-18T01:25:28.153Z,27.65
2019-03-18T01:27:59.962Z,23.83
2019-03-18T01:30:31.655Z,27.32
2019-03-18T01:33:03.406Z,25.02
2019-03-18T01:35:34.890Z,26.35
2019-03-18T01:38:06.188Z,24.37
2019-03-18T01:40:37.863Z,23.80
2019-03-18T01:43:09.170Z,24.82
2019-03-18T01:45:41.288Z,21.85
2019-03-18T01:48:12.785Z,25.43
2019-03-18T01:50:44.539Z,26.15
2019-03-18T01:53:16.203Z,27.73
2019-03-18T01:55:47.544Z,29.95
2019-03-18T01:58:19.361Z,23.27
2019-03-18T02:00:50.723Z,28.75
2019-03-18T02:03:22.456Z,29.27
2019-03-18T02:05:54.188Z,23.87
2019-03-18T02:08:25.860Z,24.27
2019-03-18T02:10:57.639Z,23.47
2019-03-18T02:13:29.410Z,29.15
2019-03-18T02:16:01.804Z,26.50
2019-03-18T02:18:33.457Z,21.77
2019-03-18T02:21:05.264Z,25.85
2019-03-18T02:23:37.069Z,25.97
2019-03-18T02:26:08.394Z,28.90
2019-03-18T02:28:40.113Z,30.62
2019-03-18T02:31:12.418Z,26.12
2019-03-18T02:33:44.115Z,31.20
2019-03-18T02:36:15.758Z,32.20
2019-03-18T02:38:47.448Z,28.87
2019-03-18T02:41:18.841Z,27.85
2019-03-18T02:43:50.117Z,28.77
2019-03-18T02:46:21.822Z,25.95
2019-03-18T02:48:53.184Z,28.52
2019-03-18T02:51:24.461Z,27.77
2019-03-18T02:53:56.143Z,29.48
2019-03-18T02:56:27.722Z,28.57
2019-03-18T02:58:58.988Z,24.95
2019-03-18T03:01:30.366Z,32.20
2019-03-18T03:04:01.813Z,29.35
2019-03-18T03:06:33.559Z,32.17
2019-03-18T03:09:06.692Z,26.15
2019-03-18T03:11:38.029Z,36.13
2019-03-18T03:14:09.347Z,40.83
2019-03-18T03:16:40.570Z,32.60
2019-03-18T03:19:11.885Z,33.70
2019-03-18T03:21:43.147Z,37.08
2019-03-18T03:24:14.500Z,35.25
2019-03-18T03:26:46.115Z,30.95
2019-03-18T03:29:17.819Z,30.90
2019-03-18T03:31:49.126Z,35.33
2019-03-18T03:34:20.838Z,34.15
2019-03-18T03:36:52.065Z,31.50
2019-03-18T03:39:23.364Z,31.57
2019-03-18T03:41:55.081Z,33.38
2019-03-18T03:44:26.481Z,27.65
2019-03-18T03:46:58.100Z,30.23
2019-03-18T03:49:29.423Z,31.62
2019-03-18T03:52:00.932Z,29.35
2019-03-18T03:54:32.601Z,27.70
2019-03-18T03:57:04.376Z,28.35
2019-03-18T03:59:36.321Z,30.92
2019-03-18T04:02:08.153Z,25.25
2019-03-18T04:04:39.635Z,24.98
2019-03-18T04:07:12.100Z,26.10
2019-03-18T04:09:43.728Z,32.28
2019-03-18T04:12:15.253Z,28.23
2019-03-18T04:14:46.974Z,28.02
2019-03-18T04:17:19.502Z,25.75
2019-03-18T04:19:51.290Z,31.82
2019-03-18T04:22:22.916Z,27.70
2019-03-18T04:24:54.366Z,29.72
2019-03-18T04:27:26.066Z,26.75
2019-03-18T04:29:57.571Z,31.20
2019-03-18T04:32:29.059Z,24.80
2019-03-18T04:35:00.826Z,29.72
2019-03-18T04:37:32.436Z,31.15
2019-03-18T04:40:03.856Z,28.30
2019-03-18T04:42:35.308Z,26.80
2019-03-18T04:45:07.065Z,31.25
2019-03-18T04:47:38.669Z,30.23
2019-03-18T04:50:10.869Z,44.03
2019-03-18T04:52:42.325Z,35.90
2019-03-18T04:55:13.938Z,34.03
2019-03-18T04:57:45.398Z,36.93
2019-03-18T05:00:16.938Z,38.20
2019-03-18T05:02:48.438Z,37.00
2019-03-18T05:05:19.902Z,44.63
2019-03-18T05:07:51.395Z,43.95
2019-03-18T05:10:22.848Z,43.38
2019-03-18T05:12:54.243Z,45.35
2019-03-18T05:15:25.870Z,45.60
2019-03-18T05:17:57.274Z,48.73
2019-03-18T05:20:28.856Z,47.53
2019-03-18T05:23:00.270Z,47.25
2019-03-18T05:25:31.989Z,42.73
2019-03-18T05:28:03.412Z,43.45
2019-03-18T05:30:34.869Z,46.00
2019-03-18T05:33:06.413Z,38.48
2019-03-18T05:35:37.981Z,36.95
2019-03-18T05:38:09.554Z,41.13
2019-03-18T05:40:41.089Z,41.73
2019-03-18T05:43:12.457Z,31.87
2019-03-18T05:45:43.973Z,30.95
2019-03-18T05:48:15.376Z,30.05
2019-03-18T05:50:47.018Z,30.72
2019-03-18T05:53:18.665Z,33.05
2019-03-18T05:55:50.135Z,31.80
2019-03-18T05:58:21.688Z,29.70
2019-03-18T06:00:53.214Z,30.00
2019-03-18T06:03:24.800Z,29.98
2019-03-18T06:05:55.791Z,30.50
2019-03-18T06:08:27.223Z,30.33
2019-03-18T06:10:58.820Z,36.00
2019-03-18T06:13:30.433Z,31.50
2019-03-18T06:16:02.007Z,30.57
2019-03-18T06:18:33.624Z,39.45
2019-03-18T06:21:05.264Z,38.10
2019-03-18T06:23:36.607Z,39.03
2019-03-18T06:26:07.958Z,33.57
2019-03-18T06:28:39.364Z,33.40
2019-03-18T06:31:10.404Z,31.60
2019-03-18T06:33:41.597Z,30.47
2019-03-18T06:36:12.925Z,28.17
2019-03-18T06:38:44.084Z,33.30
2019-03-18T06:41:15.286Z,33.63
2019-03-18T06:43:46.625Z,33.87
2019-03-18T06:46:18.151Z,33.10
2019-03-18T06:48:49.520Z,32.40
2019-03-18T06:51:20.609Z,37.53
2019-03-18T06:53:51.820Z,32.10
2019-03-18T06:56:23.112Z,31.10
2019-03-18T06:58:54.155Z,29.73
2019-03-18T07:01:27.211Z,31.47
2019-03-18T07:03:58.500Z,33.77
2019-03-18T07:06:30.111Z,28.63
2019-03-18T07:09:01.463Z,32.83
2019-03-18T07:11:33.593Z,35.63
2019-03-18T07:14:04.849Z,32.17
2019-03-18T07:16:35.930Z,35.77
2019-03-18T07:19:07.276Z,32.40
2019-03-18T07:21:38.317Z,36.20
2019-03-18T07:24:09.646Z,35.50
2019-03-18T07:26:40.850Z,34.43
2019-03-18T07:29:12.070Z,31.50
2019-03-18T07:31:43.217Z,33.80
2019-03-18T07:34:14.350Z,29.70
2019-03-18T07:36:45.621Z,28.20
2019-03-18T07:39:17.024Z,30.20
2019-03-18T07:41:48.329Z,29.67
2019-03-18T07:44:21.467Z,44.00
2019-03-18T07:46:52.860Z,29.53
2019-03-18T07:49:25.103Z,27.40
2019-03-18T07:51:56.269Z,32.43
2019-03-18T07:54:32.783Z,26.83
2019-03-18T07:57:00.679Z,26.63
2019-03-18T07:59:32.268Z,26.90
2019-03-18T08:02:03.849Z,29.50
2019-03-18T08:04:37.577Z,30.77
2019-03-18T08:07:09.394Z,27.97
2019-03-18T08:09:40.805Z,28.53
2019-03-18T08:12:12.069Z,33.20
2019-03-18T08:14:43.569Z,29.07
2019-03-18T08:17:14.869Z,35.27
2019-03-18T08:19:46.236Z,31.53
2019-03-18T08:22:17.452Z,36.37
2019-03-18T08:24:48.743Z,28.20
2019-03-18T08:27:20.026Z,24.20
2019-03-18T08:29:51.564Z,28.87
2019-03-18T08:32:22.876Z,28.20
2019-03-18T08:34:54.286Z,26.47
2019-03-18T08:37:25.586Z,23.80
2019-03-18T08:39:57.009Z,22.83
2019-03-18T08:42:28.298Z,21.17
2019-03-18T08:44:59.255Z,23.27
2019-03-18T08:47:30.416Z,20.50
2019-03-18T08:50:01.417Z,25.80
2019-03-18T08:52:32.546Z,19.17
2019-03-18T08:55:03.643Z,17.00
2019-03-18T08:57:34.726Z,18.57
2019-03-18T09:00:06.697Z,16.80
2019-03-18T09:02:38.134Z,19.63
2019-03-18T09:05:09.790Z,16.20
2019-03-18T09:07:41.264Z,18.97
2019-03-18T09:10:12.854Z,19.27
2019-03-18T09:12:45.422Z,23.57
2019-03-18T09:15:16.771Z,28.90
2019-03-18T09:17:48.052Z,33.73
2019-03-18T09:20:19.635Z,41.37
2019-03-18T09:22:51.222Z,41.83
2019-03-18T09:25:22.696Z,40.87
2019-03-18T09:27:53.904Z,29.67
2019-03-18T09:30:25.160Z,32.23
2019-03-18T09:32:56.643Z,26.60
2019-03-18T09:35:27.938Z,22.63
2019-03-18T09:37:59.610Z,26.67
2019-03-18T09:40:30.549Z,25.30
2019-03-18T09:43:01.745Z,23.57
2019-03-18T09:45:33.113Z,21.67
2019-03-18T09:48:04.578Z,22.87
2019-03-18T09:50:35.967Z,19.70
2019-03-18T09:53:07.614Z,22.77
2019-03-18T09:55:39.049Z,29.63
2019-03-18T09:58:10.554Z,34.67
2019-03-18T10:00:42.866Z,21.47
2019-03-18T10:03:14.010Z,24.63
2019-03-18T10:05:46.396Z,17.87
2019-03-18T10:08:17.842Z,18.30
2019-03-18T10:10:49.012Z,17.90
2019-03-18T10:13:20.424Z,17.90
2019-03-18T10:15:51.677Z,15.63
2019-03-18T10:18:23.032Z,17.87
2019-03-18T10:20:54.317Z,16.37
2019-03-18T10:23:25.511Z,19.63
2019-03-18T10:25:56.519Z,21.77
2019-03-18T10:28:27.942Z,20.27
2019-03-18T10:30:59.451Z,13.97
2019-03-18T10:33:30.894Z,15.73
2019-03-18T10:36:02.526Z,16.50
2019-03-18T10:38:33.925Z,16.90
2019-03-18T10:41:05.354Z,15.40
2019-03-18T10:43:37.844Z,18.60
2019-03-18T10:46:09.197Z,17.10
2019-03-18T10:48:40.254Z,15.43
2019-03-18T10:51:11.856Z,15.13
2019-03-18T10:53:44.619Z,14.97
2019-03-18T10:56:16.198Z,14.70
2019-03-18T10:58:47.802Z,12.20
2019-03-18T11:01:19.085Z,15.03
2019-03-18T11:03:50.330Z,16.30
2019-03-18T11:06:21.672Z,11.13
2019-03-18T11:08:53.151Z,15.43
2019-03-18T11:11:24.169Z,18.43
2019-03-18T11:13:55.272Z,13.23
2019-03-18T11:16:26.659Z,15.30
2019-03-18T11:18:57.699Z,14.00
2019-03-18T11:21:28.899Z,17.20
2019-03-18T11:23:59.892Z,17.20
2019-03-18T11:26:31.213Z,16.50
2019-03-18T11:29:02.564Z,11.53
2019-03-18T11:31:33.805Z,12.17
2019-03-18T11:34:05.231Z,16.70
2019-03-18T11:36:36.302Z,15.73
2019-03-18T11:39:08.999Z,15.37
2019-03-18T11:41:40.241Z,13.63
2019-03-18T11:44:11.358Z,14.30
2019-03-18T11:46:42.342Z,14.80
2019-03-18T11:49:13.448Z,12.50
2019-03-18T11:51:44.450Z,13.13
2019-03-18T11:54:15.995Z,11.53
2019-03-18T11:56:47.369Z,9.93
2019-03-18T11:59:20.869Z,9.20
2019-03-18T12:01:51.402Z,13.33
2019-03-18T12:04:22.590Z,9.57
2019-03-18T12:06:55.180Z,11.30
2019-03-18T12:09:26.638Z,9.60
2019-03-18T12:11:57.849Z,9.53
2019-03-18T12:14:29.105Z,9.80
2019-03-18T12:17:00.342Z,7.90
2019-03-18T12:19:31.704Z,11.37
2019-03-18T12:22:03.096Z,12.60
2019-03-18T12:24:34.091Z,10.30
2019-03-18T12:27:05.589Z,7.73
2019-03-18T12:29:37.109Z,9.17
2019-03-18T12:32:08.548Z,10.47
2019-03-18T12:34:39.693Z,7.57
2019-03-18T12:37:10.760Z,8.20
2019-03-18T12:39:43.025Z,12.63
2019-03-18T12:42:14.396Z,12.20
2019-03-18T12:44:45.561Z,8.10
2019-03-18T12:47:16.870Z,9.03
2019-03-18T12:49:47.886Z,8.77
2019-03-18T12:52:19.186Z,10.07
2019-03-18T12:54:50.133Z,8.50
2019-03-18T12:57:21.081Z,9.40
2019-03-18T12:59:52.377Z,11.33
2019-03-18T13:02:23.714Z,7.13
2019-03-18T13:04:55.148Z,6.03
2019-03-18T13:07:26.683Z,10.33
2019-03-18T13:09:58.070Z,6.57
2019-03-18T13:12:28.979Z,5.03
2019-03-18T13:15:00.382Z,7.10
2019-03-18T13:17:31.494Z,9.00
2019-03-18T13:20:02.625Z,8.27
2019-03-18T13:22:33.839Z,8.77
2019-03-18T13:25:05.325Z,6.83
2019-03-18T13:27:37.147Z,6.20
2019-03-18T13:30:09.997Z,6.83
2019-03-18T13:32:41.116Z,7.20
2019-03-18T13:35:12.462Z,6.03
2019-03-18T13:37:43.840Z,2.97
2019-03-18T13:40:15.317Z,4.13
2019-03-18T13:42:46.332Z,7.90
2019-03-18T13:45:18.729Z,3.00
2019-03-18T13:47:50.529Z,3.33
2019-03-18T13:50:21.888Z,3.30
2019-03-18T13:52:53.094Z,4.63
2019-03-18T13:55:24.395Z,2.70
2019-03-18T13:57:55.552Z,4.40
2019-03-18T14:00:26.601Z,5.30
2019-03-18T14:02:57.800Z,2.53
2019-03-18T14:05:29.144Z,4.13
2019-03-18T14:08:01.463Z,1.83
2019-03-18T14:10:33.843Z,4.23
2019-03-18T14:13:07.655Z,3.10
2019-03-18T14:15:38.619Z,3.23
2019-03-18T14:18:10.093Z,3.70
2019-03-18T14:20:41.123Z,2.37
2019-03-18T14:23:12.588Z,2.40
2019-03-18T14:25:45.530Z,2.80
2019-03-18T14:28:16.777Z,3.17
2019-03-18T14:30:48.152Z,3.43
2019-03-18T14:33:19.703Z,4.70
2019-03-18T14:35:50.795Z,3.83
2019-03-18T14:38:22.062Z,6.00
2019-03-18T14:40:53.168Z,3.37
2019-03-18T14:43:24.498Z,3.17
2019-03-18T14:45:55.802Z,1.80
2019-03-18T14:48:27.588Z,2.83
2019-03-18T14:50:58.759Z,1.60
2019-03-18T14:53:30.173Z,2.00
2019-03-18T14:56:01.375Z,1.40
2019-03-18T14:58:33.881Z,1.37
2019-03-18T15:01:05.958Z,2.97
2019-03-18T15:03:37.023Z,2.70
2019-03-18T15:06:08.435Z,6.40
2019-03-18T15:08:40.085Z,2.63
2019-03-18T15:11:11.424Z,2.17
2019-03-18T15:13:42.910Z,3.03
2019-03-18T15:16:14.347Z,2.40
2019-03-18T15:18:45.499Z,3.67
2019-03-18T15:21:16.682Z,6.50
2019-03-18T15:23:47.913Z,4.03
2019-03-18T15:26:18.957Z,5.43
2019-03-18T15:28:50.212Z,2.93
2019-03-18T15:31:21.459Z,4.53
2019-03-18T15:33:52.565Z,7.57
2019-03-18T15:36:23.585Z,3.17
2019-03-18T15:38:54.824Z,3.40
2019-03-18T15:41:26.067Z,3.67
2019-03-18T15:43:57.591Z,2.90
2019-03-18T15:46:29.076Z,3.87
2019-03-18T15:49:00.359Z,3.00
2019-03-18T15:51:31.546Z,3.73
2019-03-18T15:54:02.507Z,2.77
2019-03-18T15:56:33.602Z,4.20
2019-03-18T15:59:04.578Z,5.17
2019-03-18T16:01:35.484Z,4.83
2019-03-18T16:04:06.440Z,5.93
2019-03-18T16:06:37.464Z,5.70
2019-03-18T16:09:09.434Z,3.40
2019-03-18T16:11:40.437Z,4.10
2019-03-18T16:14:11.534Z,3.13
2019-03-18T16:16:42.823Z,4.10
2019-03-18T16:19:14.289Z,3.27
2019-03-18T16:21:45.325Z,4.03
2019-03-18T16:24:17.221Z,3.20
2019-03-18T16:26:48.336Z,6.80
2019-03-18T16:29:19.529Z,4.27
2019-03-18T16:31:50.804Z,5.57
2019-03-18T16:34:21.768Z,4.67
2019-03-18T16:36:54.829Z,4.27
2019-03-18T16:39:26.260Z,3.80
2019-03-18T16:41:57.589Z,4.97
2019-03-18T16:44:28.910Z,6.67
2019-03-18T16:47:00.199Z,3.77
2019-03-18T16:49:31.581Z,2.50
2019-03-18T16:52:02.849Z,5.50
2019-03-18T16:54:33.742Z,4.00
2019-03-18T16:57:04.690Z,5.90
2019-03-18T16:59:35.721Z,4.57
2019-03-18T17:02:06.915Z,5.47
2019-03-18T17:04:38.327Z,3.23
2019-03-18T17:07:09.650Z,3.50
2019-03-18T17:09:40.921Z,6.00
2019-03-18T17:12:12.125Z,4.33
2019-03-18T17:14:43.351Z,3.83
2019-03-18T17:17:14.502Z,3.30
2019-03-18T17:19:45.528Z,4.23
2019-03-18T17:22:16.937Z,5.63
2019-03-18T17:24:49.296Z,3.23
2019-03-18T17:27:20.610Z,6.10
2019-03-18T17:29:51.948Z,6.70
2019-03-18T17:32:23.146Z,5.70
2019-03-18T17:34:54.115Z,3.23
2019-03-18T17:37:25.311Z,7.53
2019-03-18T17:39:56.659Z,3.63
2019-03-18T17:42:27.851Z,5.23
2019-03-18T17:44:59.047Z,4.13
2019-03-18T17:47:30.215Z,4.00
2019-03-18T17:50:01.193Z,4.03
2019-03-18T17:52:32.529Z,7.23
2019-03-18T17:55:03.557Z,4.27
2019-03-18T17:57:34.788Z,8.43
2019-03-18T18:00:07.105Z,7.23
2019-03-18T18:02:38.456Z,12.60
2019-03-18T18:05:09.547Z,14.20
2019-03-18T18:07:40.984Z,14.03
2019-03-18T18:10:12.005Z,11.50
2019-03-18T18:12:43.052Z,12.73
2019-03-18T18:15:14.303Z,15.33
2019-03-18T18:17:45.567Z,17.17
2019-03-18T18:20:16.900Z,15.10
2019-03-18T18:22:48.227Z,15.73
2019-03-18T18:25:19.340Z,21.83
2019-03-18T18:27:50.581Z,23.53
2019-03-18T18:30:21.890Z,23.80
2019-03-18T18:32:53.202Z,19.43
2019-03-18T18:35:26.649Z,20.83
2019-03-18T18:37:59.725Z,19.03
2019-03-18T18:40:30.637Z,22.37
2019-03-18T18:43:01.770Z,18.60
2019-03-18T18:45:32.897Z,16.23
2019-03-18T18:48:04.020Z,15.20
2019-03-18T18:50:35.302Z,13.20
2019-03-18T18:53:06.566Z,20.57
2019-03-18T18:55:37.625Z,19.30
2019-03-18T18:58:08.637Z,15.60
2019-03-18T19:00:39.757Z,15.80
2019-03-18T19:03:11.068Z,18.17
2019-03-18T19:05:42.250Z,18.23
2019-03-18T19:08:13.186Z,19.20
2019-03-18T19:10:44.232Z,21.30
2019-03-18T19:13:17.693Z,20.37
2019-03-18T19:15:48.069Z,19.23
2019-03-18T19:18:19.268Z,20.30
2019-03-18T19:20:50.327Z,26.63
2019-03-18T19:23:21.405Z,18.13
2019-03-18T19:25:53.075Z,15.53
2019-03-18T19:28:24.289Z,24.43
2019-03-18T19:30:56.507Z,26.23
2019-03-18T19:33:27.663Z,24.97
2019-03-18T19:35:59.095Z,22.00
2019-03-18T19:38:31.063Z,21.33
2019-03-18T19:41:02.131Z,23.97
2019-03-18T19:43:33.316Z,19.03
2019-03-18T19:46:04.404Z,22.37
2019-03-18T19:48:35.368Z,22.03
2019-03-18T19:51:06.622Z,24.70
2019-03-18T19:53:48.353Z,22.67
2019-03-18T19:56:10.242Z,22.23
2019-03-18T19:58:41.457Z,21.90
2019-03-18T20:01:12.446Z,20.37
2019-03-18T20:03:43.934Z,18.60
2019-03-18T20:06:15.035Z,16.73
2019-03-18T20:08:46.272Z,14.03
2019-03-18T20:11:17.426Z,21.50
2019-03-18T20:13:48.741Z,19.93
2019-03-18T20:16:20.041Z,18.53
2019-03-18T20:18:51.265Z,18.53
2019-03-18T20:21:22.204Z,18.60
2019-03-18T20:24:00.804Z,17.67
2019-03-18T20:26:26.108Z,15.30
2019-03-18T20:28:57.106Z,20.03
2019-03-18T20:31:28.223Z,22.93
2019-03-18T20:33:59.259Z,18.50
2019-03-18T20:36:30.170Z,19.13
2019-03-18T20:39:01.173Z,19.47
2019-03-18T20:41:33.230Z,14.13
2019-03-18T20:44:04.229Z,20.47
2019-03-18T20:46:35.148Z,16.70
2019-03-18T20:49:06.460Z,14.83
2019-03-18T20:51:37.451Z,16.43
2019-03-18T20:54:12.278Z,15.43
2019-03-18T20:56:42.413Z,19.80
2019-03-18T20:59:13.400Z,14.37
2019-03-18T21:01:44.381Z,13.37
2019-03-18T21:04:15.706Z,15.53
2019-03-18T21:06:46.859Z,13.73
2019-03-18T21:09:18.146Z,13.47
2019-03-18T21:11:49.411Z,14.03
2019-03-18T21:14:20.910Z,13.80
2019-03-18T21:16:51.997Z,9.40
2019-03-18T21:19:23.147Z,11.07
2019-03-18T21:21:54.518Z,10.43
2019-03-18T21:24:25.480Z,7.23
2019-03-18T21:26:56.507Z,7.87
2019-03-18T21:29:27.454Z,8.13
2019-03-18T21:31:58.651Z,6.43
2019-03-18T21:34:30.053Z,8.07
2019-03-18T21:37:01.520Z,6.40
2019-03-18T21:39:32.579Z,7.67
2019-03-18T21:42:03.504Z,8.17
2019-03-18T21:44:34.516Z,7.40
2019-03-18T21:47:05.618Z,9.03
2019-03-18T21:49:36.648Z,9.23
2019-03-18T21:52:07.569Z,7.73
2019-03-18T21:54:38.684Z,6.93
2019-03-18T21:57:10.043Z,5.73
2019-03-18T21:59:41.495Z,4.33
2019-03-18T22:02:12.700Z,6.97
2019-03-18T22:04:43.704Z,5.77
2019-03-18T22:07:14.951Z,3.63
2019-03-18T22:09:45.949Z,4.00
2019-03-18T22:12:17.118Z,8.00
2019-03-18T22:14:48.547Z,7.00
2019-03-18T22:17:19.870Z,6.20
2019-03-18T22:19:51.215Z,7.33
2019-03-18T22:22:22.396Z,5.03
2019-03-18T22:24:53.547Z,6.97
2019-03-18T22:27:24.734Z,7.07
2019-03-18T22:29:55.915Z,4.83
2019-03-18T22:32:27.164Z,6.43
2019-03-18T22:34:58.444Z,5.30
2019-03-18T22:37:29.615Z,5.73
2019-03-18T22:40:00.685Z,8.37
2019-03-18T22:42:31.690Z,7.70
2019-03-18T22:45:02.999Z,8.87
2019-03-18T22:47:34.086Z,7.00
2019-03-18T22:50:06.096Z,7.70
2019-03-18T22:52:37.122Z,5.97
2019-03-18T22:55:08.809Z,7.47
2019-03-18T22:57:40.153Z,6.13
2019-03-18T23:00:29.160Z,6.53
2019-03-18T23:03:01.781Z,5.87
2019-03-18T23:05:32.696Z,6.43
2019-03-18T23:08:03.765Z,7.67
2019-03-18T23:10:35.021Z,6.03
2019-03-18T23:13:06.261Z,7.17
2019-03-18T23:15:37.432Z,5.73
2019-03-18T23:18:08.437Z,5.83
2019-03-18T23:20:39.451Z,7.70
2019-03-18T23:23:10.753Z,6.03
2019-03-18T23:25:42.022Z,6.93
2019-03-18T23:28:13.301Z,6.93
2019-03-18T23:30:44.251Z,7.03
2019-03-18T23:33:15.381Z,6.00
2019-03-18T23:35:46.578Z,7.10
2019-03-18T23:38:17.947Z,7.10
2019-03-18T23:40:49.322Z,5.37
2019-03-18T23:43:21.457Z,8.83
2019-03-18T23:45:52.753Z,8.53
2019-03-18T23:48:24.016Z,8.77
2019-03-18T23:50:55.294Z,12.40
2019-03-18T23:53:26.635Z,8.60
2019-03-18T23:55:58.077Z,9.47
2019-03-18T23:58:29.489Z,11.17
